createdAt,value
2018-10-16T00:01:53.195Z,99.90
2018-10-16T00:04:21.582Z,99.90
2018-10-16T00:06:50.370Z,99.90
2018-10-16T00:09:18.782Z,99.90
2018-10-16T00:12:02.166Z,99.90
2018-10-16T00:14:30.935Z,99.90
2018-10-16T00:16:59.915Z,99.90
2018-10-16T00:19:28.400Z,99.90
2018-10-16T00:21:56.808Z,99.90
2018-10-16T00:24:25.196Z,99.90
2018-10-16T00:26:53.571Z,99.90
2018-10-16T00:29:22.515Z,99.90
2018-10-16T00:31:51.306Z,99.90
2018-10-16T00:34:19.739Z,99.90
2018-10-16T00:36:48.151Z,99.90
2018-10-16T00:39:17.289Z,99.90
2018-10-16T00:41:51.083Z,99.90
2018-10-16T00:44:19.827Z,99.90
2018-10-16T00:46:48.224Z,99.90
2018-10-16T00:49:16.633Z,99.90
2018-10-16T00:51:45.045Z,99.90
2018-10-16T00:54:13.435Z,99.90
2018-10-16T00:56:41.843Z,99.90
2018-10-16T00:59:10.735Z,99.90
2018-10-16T01:01:39.114Z,99.90
2018-10-16T01:04:08.341Z,99.90
2018-10-16T01:06:37.410Z,99.90
2018-10-16T01:09:13.283Z,99.90
2018-10-16T01:11:41.706Z,99.90
2018-10-16T01:14:10.182Z,99.90
2018-10-16T01:16:38.597Z,99.90
2018-10-16T01:19:06.998Z,99.90
2018-10-16T01:21:35.539Z,99.90
2018-10-16T01:24:03.974Z,99.90
2018-10-16T01:26:32.477Z,99.90
2018-10-16T01:29:00.939Z,99.90
2018-10-16T01:31:29.358Z,99.90
2018-10-16T01:33:57.743Z,99.90
2018-10-16T01:36:26.181Z,99.90
2018-10-16T01:38:54.588Z,99.90
2018-10-16T01:41:22.995Z,99.90
2018-10-16T01:43:51.355Z,99.90
2018-10-16T01:46:20.064Z,99.90
2018-10-16T01:48:48.428Z,99.90
2018-10-16T01:51:16.802Z,99.90
2018-10-16T01:53:45.204Z,99.90
2018-10-16T01:56:13.595Z,99.90
2018-10-16T01:58:42.032Z,99.90
2018-10-16T02:01:10.850Z,99.90
2018-10-16T02:03:39.305Z,99.90
2018-10-16T02:06:07.765Z,99.90
2018-10-16T02:08:36.224Z,99.90
2018-10-16T02:11:04.658Z,99.90
2018-10-16T02:13:33.240Z,99.90
2018-10-16T02:16:01.666Z,99.90
2018-10-16T02:18:30.097Z,99.90
2018-10-16T02:20:58.576Z,99.90
2018-10-16T02:23:27.380Z,99.90
2018-10-16T02:25:55.794Z,99.90
2018-10-16T02:28:24.211Z,99.90
2018-10-16T02:30:52.689Z,99.90
2018-10-16T02:33:21.785Z,99.90
2018-10-16T02:35:50.193Z,99.90
2018-10-16T02:38:18.629Z,99.90
2018-10-16T02:40:47.015Z,99.90
2018-10-16T02:43:15.436Z,99.90
2018-10-16T02:45:43.807Z,99.90
2018-10-16T02:48:12.367Z,99.90
2018-10-16T02:50:40.741Z,99.90
2018-10-16T02:53:09.210Z,99.90
2018-10-16T02:55:37.597Z,99.90
2018-10-16T02:58:06.576Z,99.90
2018-10-16T03:00:35.016Z,99.90
2018-10-16T03:03:03.398Z,99.90
2018-10-16T03:05:31.781Z,99.90
2018-10-16T03:08:00.219Z,99.90
2018-10-16T03:10:28.590Z,99.90
2018-10-16T03:12:57.077Z,99.90
2018-10-16T03:15:25.500Z,99.90
2018-10-16T03:17:53.881Z,99.90
2018-10-16T03:20:22.385Z,99.90
2018-10-16T03:22:50.731Z,99.90
2018-10-16T03:25:19.149Z,99.90
2018-10-16T03:27:48.147Z,99.90
2018-10-16T03:30:16.627Z,99.90
2018-10-16T03:32:45.008Z,99.90
2018-10-16T03:35:13.396Z,99.90
2018-10-16T03:37:42.238Z,99.90
2018-10-16T03:40:11.525Z,99.90
2018-10-16T03:42:40.831Z,99.90
2018-10-16T03:45:10.799Z,99.90
2018-10-16T03:47:39.823Z,99.90
2018-10-16T03:50:08.955Z,99.90
2018-10-16T03:52:37.430Z,99.90
2018-10-16T03:55:06.434Z,99.90
2018-10-16T03:57:34.862Z,99.90
2018-10-16T04:00:03.347Z,99.90
2018-10-16T04:02:31.719Z,99.90
2018-10-16T04:05:00.372Z,99.90
2018-10-16T04:07:28.747Z,99.90
2018-10-16T04:09:57.172Z,99.90
2018-10-16T04:12:25.612Z,99.90
2018-10-16T04:14:54.004Z,99.90
2018-10-16T04:17:22.584Z,99.90
2018-10-16T04:19:51.123Z,99.90
2018-10-16T04:22:19.565Z,99.90
2018-10-16T04:24:48.015Z,99.90
2018-10-16T04:27:16.379Z,99.90
2018-10-16T04:29:44.762Z,99.90
2018-10-16T04:32:13.144Z,99.90
2018-10-16T04:34:41.600Z,99.90
2018-10-16T04:37:09.991Z,99.90
2018-10-16T04:39:38.459Z,99.90
2018-10-16T04:42:06.934Z,99.90
2018-10-16T04:44:35.447Z,99.90
2018-10-16T04:47:04.121Z,99.90
2018-10-16T04:49:32.589Z,99.90
2018-10-16T04:52:00.934Z,99.90
2018-10-16T04:54:29.348Z,99.90
2018-10-16T04:56:57.755Z,99.90
2018-10-16T04:59:26.210Z,99.90
2018-10-16T05:01:54.730Z,99.90
2018-10-16T05:04:23.138Z,99.90
2018-10-16T05:06:51.610Z,99.90
2018-10-16T05:09:20.019Z,99.90
2018-10-16T05:11:55.324Z,99.90
2018-10-16T05:14:23.746Z,99.90
2018-10-16T05:16:52.329Z,99.90
2018-10-16T05:19:20.692Z,99.90
2018-10-16T05:21:49.171Z,99.90
2018-10-16T05:24:17.597Z,99.90
2018-10-16T05:26:46.048Z,99.90
2018-10-16T05:29:14.516Z,99.90
2018-10-16T05:31:42.889Z,99.90
2018-10-16T05:34:11.299Z,99.90
2018-10-16T05:36:39.825Z,99.90
2018-10-16T05:39:10.755Z,99.90
2018-10-16T05:41:39.653Z,99.90
2018-10-16T05:44:08.193Z,99.90
2018-10-16T05:46:36.621Z,99.90
2018-10-16T05:49:05.210Z,99.90
2018-10-16T05:51:33.631Z,99.90
2018-10-16T05:54:02.019Z,99.90
2018-10-16T05:56:30.579Z,99.90
2018-10-16T05:58:59.011Z,99.90
2018-10-16T06:01:27.479Z,99.90
2018-10-16T06:03:55.986Z,99.90
2018-10-16T06:06:24.371Z,99.90
2018-10-16T06:08:52.755Z,99.90
2018-10-16T06:11:21.167Z,99.90
2018-10-16T06:13:49.588Z,99.90
2018-10-16T06:16:17.998Z,99.90
2018-10-16T06:18:46.464Z,99.90
2018-10-16T06:21:15.008Z,99.90
2018-10-16T06:23:43.361Z,99.90
2018-10-16T06:26:11.764Z,99.90
2018-10-16T06:28:40.186Z,99.90
2018-10-16T06:31:08.603Z,99.90
2018-10-16T06:33:37.065Z,99.90
2018-10-16T06:36:06.354Z,99.90
2018-10-16T06:38:34.772Z,99.90
2018-10-16T06:41:03.495Z,99.90
2018-10-16T06:43:31.798Z,99.90
2018-10-16T06:46:00.204Z,99.90
2018-10-16T06:48:28.844Z,99.90
2018-10-16T06:50:57.096Z,99.90
2018-10-16T06:53:25.613Z,99.90
2018-10-16T06:55:53.899Z,99.90
2018-10-16T06:58:22.302Z,99.90
2018-10-16T07:00:50.683Z,99.90
2018-10-16T07:03:19.362Z,99.90
2018-10-16T07:05:47.782Z,99.90
2018-10-16T07:08:16.227Z,99.90
2018-10-16T07:10:44.629Z,99.90
2018-10-16T07:13:13.949Z,99.90
2018-10-16T07:15:42.379Z,99.90
2018-10-16T07:18:10.811Z,99.90
2018-10-16T07:20:39.265Z,99.90
2018-10-16T07:23:07.652Z,99.90
2018-10-16T07:25:36.037Z,99.90
2018-10-16T07:28:04.737Z,99.90
2018-10-16T07:30:33.196Z,99.90
2018-10-16T07:33:01.573Z,99.90
2018-10-16T07:35:30.027Z,99.90
2018-10-16T07:37:58.530Z,99.90
2018-10-16T07:40:26.877Z,99.90
2018-10-16T07:42:55.231Z,99.90
2018-10-16T07:45:23.953Z,99.90
2018-10-16T07:47:52.350Z,99.90
2018-10-16T07:50:20.764Z,99.90
2018-10-16T07:52:49.444Z,99.90
2018-10-16T07:55:17.911Z,99.90
2018-10-16T07:57:46.346Z,99.90
2018-10-16T08:00:14.703Z,99.90
2018-10-16T08:02:43.827Z,99.90
2018-10-16T08:05:12.681Z,99.90
2018-10-16T08:07:41.853Z,99.90
2018-10-16T08:10:12.200Z,99.90
2018-10-16T08:12:40.886Z,99.90
2018-10-16T08:15:09.877Z,99.90
2018-10-16T08:17:38.360Z,99.90
2018-10-16T08:20:06.883Z,99.90
2018-10-16T08:22:35.362Z,99.90
2018-10-16T08:25:03.938Z,99.90
2018-10-16T08:27:32.437Z,99.90
2018-10-16T08:30:01.088Z,99.90
2018-10-16T08:32:29.471Z,99.90
2018-10-16T08:34:58.329Z,99.90
2018-10-16T08:38:37.094Z,99.90
2018-10-16T08:41:07.518Z,99.90
2018-10-16T08:43:48.688Z,99.90
2018-10-16T08:46:28.651Z,99.90
2018-10-16T08:49:08.154Z,99.90
2018-10-16T08:51:56.223Z,99.90
2018-10-16T08:54:24.639Z,99.90
2018-10-16T08:56:53.070Z,99.90
2018-10-16T08:59:21.532Z,99.90
2018-10-16T09:01:49.942Z,99.90
2018-10-16T09:04:18.434Z,99.90
2018-10-16T09:06:46.873Z,99.90
2018-10-16T09:09:16.565Z,99.90
2018-10-16T09:11:46.253Z,99.90
2018-10-16T09:14:15.415Z,99.90
2018-10-16T09:16:45.146Z,99.90
2018-10-16T09:19:13.600Z,99.90
2018-10-16T09:21:41.946Z,99.90
2018-10-16T09:24:10.354Z,99.50
2018-10-16T09:26:38.843Z,98.00
2018-10-16T09:29:07.236Z,95.40
2018-10-16T09:31:35.661Z,98.10
2018-10-16T09:34:04.138Z,99.90
2018-10-16T09:36:32.532Z,99.90
2018-10-16T09:39:00.939Z,99.90
2018-10-16T09:41:29.339Z,99.90
2018-10-16T09:43:57.747Z,99.90
2018-10-16T09:46:26.479Z,99.90
2018-10-16T09:48:54.951Z,99.90
2018-10-16T09:51:23.460Z,99.90
2018-10-16T09:53:51.876Z,99.90
2018-10-16T09:56:20.340Z,99.90
2018-10-16T09:58:48.702Z,99.90
2018-10-16T10:01:22.402Z,99.90
2018-10-16T10:03:50.836Z,99.90
2018-10-16T10:06:19.378Z,99.90
2018-10-16T10:08:47.828Z,99.90
2018-10-16T10:11:16.780Z,99.90
2018-10-16T10:13:45.328Z,99.90
2018-10-16T10:16:13.772Z,99.80
2018-10-16T10:18:42.176Z,98.30
2018-10-16T10:21:10.570Z,97.40
2018-10-16T10:23:39.016Z,96.40
2018-10-16T10:26:07.405Z,96.90
2018-10-16T10:28:35.976Z,95.80
2018-10-16T10:31:04.500Z,96.60
2018-10-16T10:33:32.892Z,97.00
2018-10-16T10:36:01.409Z,99.20
2018-10-16T10:38:30.484Z,99.90
2018-10-16T10:40:59.177Z,99.30
2018-10-16T10:43:27.940Z,96.10
2018-10-16T10:45:56.622Z,95.50
2018-10-16T10:48:25.597Z,97.70
2018-10-16T10:50:54.364Z,96.60
2018-10-16T10:53:22.940Z,96.80
2018-10-16T10:55:51.624Z,98.70
2018-10-16T10:58:20.302Z,99.90
2018-10-16T11:00:49.194Z,99.90
2018-10-16T11:03:18.152Z,99.90
2018-10-16T11:05:46.711Z,99.90
2018-10-16T11:08:16.707Z,99.90
2018-10-16T11:10:45.416Z,99.90
2018-10-16T11:13:14.194Z,99.90
2018-10-16T11:15:42.862Z,99.90
2018-10-16T11:18:11.510Z,99.90
2018-10-16T11:20:40.154Z,99.90
2018-10-16T11:23:08.962Z,99.90
2018-10-16T11:25:37.613Z,99.90
2018-10-16T11:28:06.472Z,99.90
2018-10-16T11:30:35.180Z,98.40
2018-10-16T11:33:03.991Z,98.90
2018-10-16T11:35:32.685Z,99.20
2018-10-16T11:38:01.433Z,98.70
2018-10-16T11:40:30.141Z,99.10
2018-10-16T11:42:59.098Z,99.90
2018-10-16T11:45:27.941Z,99.90
2018-10-16T11:47:56.616Z,99.90
2018-10-16T11:50:25.324Z,99.90
2018-10-16T11:52:54.021Z,99.90
2018-10-16T11:55:22.809Z,99.90
2018-10-16T11:57:51.827Z,99.90
2018-10-16T12:00:20.617Z,99.90
2018-10-16T12:02:49.385Z,99.90
2018-10-16T12:05:18.063Z,99.90
2018-10-16T12:07:46.907Z,99.90
2018-10-16T12:10:15.621Z,99.90
2018-10-16T12:12:44.269Z,99.90
2018-10-16T12:15:13.058Z,99.90
2018-10-16T12:17:47.215Z,99.90
2018-10-16T12:20:25.446Z,99.90
2018-10-16T12:22:54.157Z,99.90
2018-10-16T12:25:22.824Z,99.90
2018-10-16T12:27:51.530Z,99.90
2018-10-16T12:30:20.419Z,99.90
2018-10-16T12:32:49.754Z,99.90
2018-10-16T12:35:18.346Z,99.90
2018-10-16T12:37:47.226Z,99.90
2018-10-16T12:40:15.995Z,99.90
2018-10-16T12:42:44.728Z,98.80
2018-10-16T12:45:13.877Z,99.60
2018-10-16T12:47:42.560Z,99.90
2018-10-16T12:50:11.218Z,99.90
2018-10-16T12:52:39.940Z,99.90
2018-10-16T12:55:08.818Z,99.90
2018-10-16T12:57:37.269Z,99.90
2018-10-16T13:00:06.492Z,99.90
2018-10-16T13:02:34.817Z,99.90
2018-10-16T13:05:03.336Z,99.90
2018-10-16T13:07:36.584Z,99.90
2018-10-16T13:10:07.528Z,99.90
2018-10-16T13:12:35.904Z,99.90
2018-10-16T13:15:04.804Z,99.90
2018-10-16T13:17:33.221Z,99.90
2018-10-16T13:20:01.620Z,99.90
2018-10-16T13:22:30.060Z,99.90
2018-10-16T13:24:58.478Z,99.90
2018-10-16T13:27:26.912Z,99.90
2018-10-16T13:29:55.363Z,99.90
2018-10-16T13:32:23.755Z,99.90
2018-10-16T13:34:52.325Z,99.90
2018-10-16T13:37:20.763Z,99.90
2018-10-16T13:39:49.227Z,99.90
2018-10-16T13:42:17.672Z,99.90
2018-10-16T13:44:46.070Z,99.90
2018-10-16T13:47:14.554Z,99.90
2018-10-16T13:49:42.951Z,99.90
2018-10-16T13:52:11.427Z,99.90
2018-10-16T13:54:39.775Z,99.90
2018-10-16T13:57:08.292Z,99.90
2018-10-16T13:59:36.697Z,99.90
2018-10-16T14:02:05.627Z,99.90
2018-10-16T14:04:34.024Z,99.90
2018-10-16T14:07:02.394Z,99.90
2018-10-16T14:09:30.831Z,99.90
2018-10-16T14:11:59.287Z,99.90
2018-10-16T14:14:27.692Z,99.90
2018-10-16T14:16:56.294Z,99.90
2018-10-16T14:19:24.733Z,99.90
2018-10-16T14:21:53.169Z,99.90
2018-10-16T14:24:21.771Z,99.90
2018-10-16T14:26:50.504Z,99.90
2018-10-16T14:29:18.959Z,99.90
2018-10-16T14:31:47.339Z,99.90
2018-10-16T14:34:15.824Z,99.90
2018-10-16T14:36:44.163Z,99.90
2018-10-16T14:39:13.038Z,99.90
2018-10-16T14:41:41.436Z,99.90
2018-10-16T14:44:10.171Z,99.90
2018-10-16T14:46:38.510Z,99.90
2018-10-16T14:49:06.964Z,99.90
2018-10-16T14:51:35.824Z,99.90
2018-10-16T14:54:04.443Z,99.90
2018-10-16T14:56:33.544Z,99.90
2018-10-16T14:59:02.349Z,99.90
2018-10-16T15:01:30.772Z,99.90
2018-10-16T15:03:59.226Z,99.90
2018-10-16T15:06:27.676Z,99.90
2018-10-16T15:08:56.104Z,99.90
2018-10-16T15:11:24.490Z,99.90
2018-10-16T15:13:53.131Z,99.90
2018-10-16T15:16:21.544Z,99.90
2018-10-16T15:18:49.948Z,99.90
2018-10-16T15:21:18.448Z,99.90
2018-10-16T15:23:47.269Z,99.90
2018-10-16T15:26:15.586Z,99.90
2018-10-16T15:28:44.037Z,99.90
2018-10-16T15:31:13.432Z,99.90
2018-10-16T15:33:42.159Z,99.90
2018-10-16T15:36:10.599Z,99.90
2018-10-16T15:38:39.009Z,99.90
2018-10-16T15:41:07.780Z,99.90
2018-10-16T15:43:36.567Z,99.90
2018-10-16T15:46:05.268Z,99.90
2018-10-16T15:48:33.835Z,99.90
2018-10-16T15:51:02.276Z,99.90
2018-10-16T15:53:30.708Z,99.90
2018-10-16T15:55:59.146Z,99.90
2018-10-16T15:58:27.554Z,99.90
2018-10-16T16:00:55.985Z,99.90
2018-10-16T16:03:24.402Z,99.90
2018-10-16T16:05:52.860Z,99.90
2018-10-16T16:08:21.228Z,99.90
2018-10-16T16:10:49.724Z,99.90
2018-10-16T16:13:18.123Z,99.90
2018-10-16T16:15:46.584Z,99.90
2018-10-16T16:18:15.208Z,99.90
2018-10-16T16:20:43.608Z,99.90
2018-10-16T16:23:12.042Z,99.90
2018-10-16T16:25:41.017Z,99.90
2018-10-16T16:28:09.961Z,99.90
2018-10-16T16:30:38.330Z,99.90
2018-10-16T16:33:06.964Z,99.90
2018-10-16T16:35:35.420Z,99.90
2018-10-16T16:38:04.179Z,99.90
2018-10-16T16:40:32.566Z,99.90
2018-10-16T16:43:00.972Z,99.90
2018-10-16T16:45:29.491Z,99.90
2018-10-16T16:47:57.902Z,99.90
2018-10-16T16:50:26.392Z,99.90
2018-10-16T16:52:54.877Z,99.90
2018-10-16T16:55:23.621Z,99.90
2018-10-16T16:57:52.072Z,99.90
2018-10-16T17:00:20.456Z,99.90
2018-10-16T17:02:49.048Z,99.90
2018-10-16T17:05:17.441Z,99.90
2018-10-16T17:07:47.076Z,99.90
2018-10-16T17:10:15.796Z,99.90
2018-10-16T17:12:44.196Z,99.90
2018-10-16T17:15:13.892Z,99.90
2018-10-16T17:17:42.607Z,99.90
2018-10-16T17:20:11.684Z,99.90
2018-10-16T17:22:40.062Z,99.90
2018-10-16T17:25:10.725Z,99.90
2018-10-16T17:27:39.620Z,99.90
2018-10-16T17:30:10.234Z,99.90
2018-10-16T17:32:38.793Z,99.90
2018-10-16T17:35:08.102Z,99.90
2018-10-16T17:37:36.606Z,99.90
2018-10-16T17:40:05.989Z,99.90
2018-10-16T17:42:34.523Z,99.90
2018-10-16T17:45:03.033Z,99.90
2018-10-16T17:47:31.692Z,99.90
2018-10-16T17:50:00.167Z,99.90
2018-10-16T17:52:28.646Z,99.90
2018-10-16T17:54:57.129Z,99.90
2018-10-16T17:57:25.568Z,99.90
2018-10-16T17:59:53.954Z,99.90
2018-10-16T18:02:22.383Z,99.90
2018-10-16T18:04:50.867Z,99.90
2018-10-16T18:07:19.354Z,99.90
2018-10-16T18:09:47.724Z,99.90
2018-10-16T18:12:16.359Z,99.90
2018-10-16T18:14:45.236Z,99.90
2018-10-16T18:17:13.721Z,99.90
2018-10-16T18:19:42.405Z,99.90
2018-10-16T18:22:10.858Z,99.90
2018-10-16T18:24:39.373Z,99.90
2018-10-16T18:27:07.986Z,99.90
2018-10-16T18:29:36.394Z,99.90
2018-10-16T18:32:04.903Z,99.90
2018-10-16T18:34:33.373Z,99.90
2018-10-16T18:37:01.816Z,99.90
2018-10-16T18:39:30.428Z,99.90
2018-10-16T18:41:58.844Z,99.90
2018-10-16T18:44:27.364Z,99.90
2018-10-16T18:46:56.161Z,99.90
2018-10-16T18:49:24.626Z,99.90
2018-10-16T18:51:53.048Z,99.90
2018-10-16T18:54:21.777Z,99.90
2018-10-16T18:56:50.153Z,99.90
2018-10-16T18:59:18.596Z,99.90
2018-10-16T19:01:47.016Z,99.90
2018-10-16T19:04:15.448Z,99.90
2018-10-16T19:06:43.871Z,99.90
2018-10-16T19:09:13.221Z,99.90
2018-10-16T19:11:42.164Z,99.90
2018-10-16T19:14:10.952Z,99.90
2018-10-16T19:16:39.840Z,99.90
2018-10-16T19:19:08.279Z,99.90
2018-10-16T19:21:36.749Z,99.90
2018-10-16T19:24:05.420Z,99.90
2018-10-16T19:26:33.903Z,99.90
2018-10-16T19:29:02.266Z,99.90
2018-10-16T19:31:30.757Z,99.90
2018-10-16T19:33:59.168Z,99.90
2018-10-16T19:36:27.631Z,99.90
2018-10-16T19:38:56.318Z,99.90
2018-10-16T19:41:24.970Z,99.90
2018-10-16T19:43:53.485Z,99.90
2018-10-16T19:46:22.012Z,99.90
2018-10-16T19:48:50.500Z,99.90
2018-10-16T19:51:19.011Z,99.90
2018-10-16T19:53:47.889Z,99.90
2018-10-16T19:56:16.431Z,99.90
2018-10-16T19:58:44.879Z,99.90
2018-10-16T20:01:13.424Z,99.90
2018-10-16T20:03:41.912Z,99.90
2018-10-16T20:06:10.377Z,99.90
2018-10-16T20:08:38.953Z,99.90
2018-10-16T20:11:07.411Z,99.90
2018-10-16T20:13:35.870Z,99.90
2018-10-16T20:16:04.383Z,99.90
2018-10-16T20:18:32.820Z,99.90
2018-10-16T20:21:02.225Z,99.90
2018-10-16T20:23:30.654Z,99.90
2018-10-16T20:25:59.081Z,99.90
2018-10-16T20:28:27.543Z,99.90
2018-10-16T20:30:56.195Z,99.90
2018-10-16T20:33:24.575Z,99.90
2018-10-16T20:35:53.096Z,99.90
2018-10-16T20:38:21.953Z,99.90
2018-10-16T20:40:50.377Z,99.90
2018-10-16T20:43:18.830Z,99.90
2018-10-16T20:45:47.275Z,99.90
2018-10-16T20:48:15.683Z,99.90
2018-10-16T20:50:44.035Z,99.90
2018-10-16T20:53:12.507Z,99.90
2018-10-16T20:55:40.995Z,99.90
2018-10-16T20:58:09.923Z,99.90
2018-10-16T21:00:39.257Z,99.90
2018-10-16T21:03:07.692Z,99.90
2018-10-16T21:05:36.204Z,99.90
2018-10-16T21:08:04.582Z,99.90
2018-10-16T21:10:33.023Z,99.90
2018-10-16T21:13:01.485Z,99.90
2018-10-16T21:15:29.926Z,99.90
2018-10-16T21:17:58.531Z,99.90
2018-10-16T21:20:26.892Z,99.90
2018-10-16T21:22:55.415Z,99.90
2018-10-16T21:25:24.010Z,99.90
2018-10-16T21:27:52.428Z,99.90
2018-10-16T21:30:20.860Z,99.90
2018-10-16T21:32:49.372Z,99.90
2018-10-16T21:35:17.893Z,99.90
2018-10-16T21:37:46.270Z,99.90
2018-10-16T21:40:14.652Z,99.90
2018-10-16T21:42:43.450Z,99.90
2018-10-16T21:45:11.821Z,99.90
2018-10-16T21:47:40.264Z,99.90
2018-10-16T21:50:08.664Z,99.90
2018-10-16T21:52:37.058Z,99.90
2018-10-16T21:55:06.077Z,99.90
2018-10-16T21:57:34.518Z,99.90
2018-10-16T22:00:03.102Z,99.90
2018-10-16T22:02:36.825Z,99.90
2018-10-16T22:05:05.308Z,99.90
2018-10-16T22:07:33.720Z,99.90
2018-10-16T22:10:02.114Z,99.90
2018-10-16T22:12:30.519Z,99.90
2018-10-16T22:14:59.018Z,99.90
2018-10-16T22:17:27.569Z,99.90
2018-10-16T22:19:56.001Z,99.90
2018-10-16T22:22:24.421Z,99.90
2018-10-16T22:24:52.873Z,99.90
2018-10-16T22:27:21.265Z,99.90
2018-10-16T22:29:49.664Z,99.90
2018-10-16T22:32:18.055Z,99.90
2018-10-16T22:34:46.464Z,99.90
2018-10-16T22:37:14.906Z,99.90
2018-10-16T22:39:43.322Z,99.90
2018-10-16T22:42:11.699Z,99.90
2018-10-16T22:44:40.103Z,99.90
2018-10-16T22:47:08.670Z,99.90
2018-10-16T22:49:37.135Z,99.90
2018-10-16T22:52:05.625Z,99.90
2018-10-16T22:54:34.062Z,99.90
2018-10-16T22:57:02.446Z,99.90
2018-10-16T22:59:30.838Z,99.90
2018-10-16T23:01:59.224Z,99.90
2018-10-16T23:04:27.656Z,99.90
2018-10-16T23:06:56.167Z,99.90
2018-10-16T23:09:24.505Z,99.90
2018-10-16T23:11:52.898Z,99.90
2018-10-16T23:14:21.307Z,99.90
2018-10-16T23:16:49.725Z,99.90
2018-10-16T23:19:18.181Z,99.90
2018-10-16T23:21:46.678Z,99.90
2018-10-16T23:24:15.289Z,99.90
2018-10-16T23:26:43.661Z,99.90
2018-10-16T23:29:12.546Z,99.90
2018-10-16T23:31:40.816Z,99.90
2018-10-16T23:34:09.263Z,99.90
2018-10-16T23:36:37.687Z,99.90
2018-10-16T23:39:10.185Z,99.90
2018-10-16T23:41:39.288Z,99.90
2018-10-16T23:44:07.742Z,99.90
2018-10-16T23:46:36.515Z,99.90
2018-10-16T23:49:05.050Z,99.90
2018-10-16T23:51:33.455Z,99.90
2018-10-16T23:54:01.928Z,99.90
2018-10-16T23:56:30.316Z,99.90
2018-10-16T23:58:58.739Z,99.90
